Time;durP1;ratioP1;P1;durP2;ratioP2;P2;SDS_P1;SDS_P2;PMS_P1;PMS_P2;Temp;Humidity;BMP_temperature;BMP_pressure;BME280_temperature;BME280_humidity;BME280_pressure;Samples;Min_cycle;Max_cycle;Signal;HPM_P1;HPM_P2
2023/01/13 00:01:19;;;;;;;10.82;2.15;;;6.00;99.90;;;;;;4939263;29;20039;-89
2023/01/13 00:03:45;;;;;;;7.88;1.58;;;5.90;99.90;;;;;;4938870;29;20023;-89
2023/01/13 00:06:17;;;;;;;9.43;1.60;;;5.90;99.90;;;;;;4939756;29;20050;-91
2023/01/13 00:08:43;;;;;;;12.65;1.88;;;5.90;99.90;;;;;;4940065;29;20070;-90
2023/01/13 00:11:09;;;;;;;32.10;2.90;;;5.90;99.90;;;;;;4937776;29;20054;-90
2023/01/13 00:13:37;;;;;;;6.88;2.17;;;5.90;99.90;;;;;;4940683;29;20023;-91
2023/01/13 00:16:08;;;;;;;7.78;1.83;;;5.80;99.90;;;;;;4940454;29;20470;-90
2023/01/13 00:18:35;;;;;;;7.45;0.98;;;5.80;99.90;;;;;;4940243;29;20027;-90
2023/01/13 00:21:18;;;;;;;6.28;1.33;;;5.80;99.90;;;;;;4940405;29;20030;-91
2023/01/13 00:23:45;;;;;;;8.23;1.35;;;5.80;99.90;;;;;;4940291;29;20031;-91
2023/01/13 00:26:15;;;;;;;14.10;2.15;;;5.80;99.90;;;;;;4940451;29;20126;-91
2023/01/13 00:28:41;;;;;;;24.00;2.15;;;5.80;99.90;;;;;;4957358;29;20030;-91
2023/01/13 00:31:10;;;;;;;5.57;0.95;;;5.70;99.90;;;;;;4940239;29;20051;-90
2023/01/13 00:33:36;;;;;;;11.50;3.15;;;5.70;99.90;;;;;;4940352;29;20047;-92
2023/01/13 00:36:04;;;;;;;9.52;1.88;;;5.60;99.90;;;;;;4939193;29;20082;-91
2023/01/13 00:38:32;;;;;;;10.75;2.22;;;5.60;99.90;;;;;;4939935;29;20028;-93
2023/01/13 00:41:03;;;;;;;19.35;2.00;;;5.60;99.90;;;;;;4939359;29;20039;-91
2023/01/13 00:43:31;;;;;;;11.98;2.03;;;5.50;99.90;;;;;;4939052;29;20031;-91
2023/01/13 00:45:57;;;;;;;8.32;2.28;;;5.50;99.90;;;;;;4938299;29;20047;-91
2023/01/13 00:48:24;;;;;;;11.98;1.98;;;5.50;99.90;;;;;;4937083;29;20031;-90
2023/01/13 00:50:58;;;;;;;13.32;1.55;;;5.50;99.90;;;;;;4937075;29;20087;-91
2023/01/13 00:53:25;;;;;;;7.05;1.45;;;5.40;99.90;;;;;;4938259;29;20055;-90
2023/01/13 00:56:18;;;;;;;10.80;1.33;;;5.50;99.90;;;;;;4938397;29;20039;-91
2023/01/13 00:58:45;;;;;;;9.30;2.13;;;5.50;99.90;;;;;;4937966;29;20516;-91
2023/01/13 01:01:14;;;;;;;10.98;1.75;;;5.50;99.90;;;;;;4937238;29;20064;-91
2023/01/13 01:03:40;;;;;;;15.63;1.55;;;5.50;99.90;;;;;;4938709;29;20031;-90
2023/01/13 01:06:11;;;;;;;8.77;1.52;;;5.50;99.90;;;;;;4952186;29;20754;-91
2023/01/13 01:08:37;;;;;;;18.60;2.33;;;5.50;99.90;;;;;;4938865;29;20027;-90
2023/01/13 01:11:05;;;;;;;10.65;1.75;;;5.50;99.90;;;;;;4938379;29;20091;-90
2023/01/13 01:13:31;;;;;;;16.42;1.95;;;5.50;99.90;;;;;;4939070;29;20023;-90
2023/01/13 01:15:57;;;;;;;13.27;2.05;;;5.60;99.90;;;;;;4938789;29;20043;-89
2023/01/13 01:18:23;;;;;;;15.88;1.92;;;5.50;99.90;;;;;;4938225;29;20127;-90
2023/01/13 01:20:49;;;;;;;11.93;2.13;;;5.50;99.90;;;;;;4938090;29;20040;-91
2023/01/13 01:23:14;;;;;;;14.75;2.17;;;5.60;99.90;;;;;;4937690;29;20027;-90
2023/01/13 01:25:40;;;;;;;20.58;2.83;;;5.60;99.90;;;;;;4937809;29;20020;-91
2023/01/13 01:28:06;;;;;;;9.40;1.38;;;5.60;99.90;;;;;;4937588;29;20020;-90
2023/01/13 01:30:31;;;;;;;14.32;2.35;;;5.60;99.90;;;;;;4937577;29;20086;-90
2023/01/13 01:32:57;;;;;;;16.45;2.58;;;5.60;99.90;;;;;;4937627;28;20061;-92
2023/01/13 01:35:23;;;;;;;11.35;3.67;;;5.60;99.90;;;;;;4937045;29;20047;-90
2023/01/13 01:37:49;;;;;;;9.02;1.73;;;5.60;99.90;;;;;;4938575;29;20028;-90
2023/01/13 01:40:15;;;;;;;16.70;2.10;;;5.70;99.90;;;;;;4939257;29;20035;-90
2023/01/13 01:45:27;;;;;;;29.20;3.00;;;5.60;99.90;;;;;;4956460;29;20035;-91
2023/01/13 01:47:58;;;;;;;15.05;2.85;;;5.60;99.90;;;;;;4939005;29;20054;-89
2023/01/13 01:50:26;;;;;;;13.50;2.90;;;5.60;99.90;;;;;;4938774;29;20031;-90
2023/01/13 01:53:03;;;;;;;16.85;2.42;;;5.70;99.90;;;;;;4938660;29;20034;-90
2023/01/13 01:55:32;;;;;;;13.55;1.75;;;5.70;99.90;;;;;;4938799;29;20051;-89
2023/01/13 01:58:10;;;;;;;10.07;2.40;;;5.70;99.90;;;;;;4938727;29;20033;-90
2023/01/13 02:00:36;;;;;;;14.68;2.63;;;5.70;99.90;;;;;;4938965;29;20023;-91
2023/01/13 02:03:03;;;;;;;24.25;2.47;;;5.70;99.90;;;;;;4938792;29;20577;-91
2023/01/13 02:05:29;;;;;;;12.02;2.35;;;5.70;99.90;;;;;;4940248;29;20027;-91
2023/01/13 02:07:57;;;;;;;21.50;2.60;;;5.70;99.90;;;;;;4939404;29;20031;-90
2023/01/13 02:10:26;;;;;;;12.45;1.92;;;5.70;99.90;;;;;;4940090;29;20159;-90
2023/01/13 02:12:54;;;;;;;19.10;2.83;;;5.80;99.90;;;;;;4956985;29;20031;-91
2023/01/13 02:15:30;;;;;;;21.40;3.35;;;5.80;99.90;;;;;;4939707;29;20066;-89
2023/01/13 02:18:19;;;;;;;11.65;2.40;;;5.80;99.90;;;;;;4939141;29;20028;-89
2023/01/13 02:21:18;;;;;;;19.33;2.53;;;5.80;99.90;;;;;;4938785;29;20480;-90
2023/01/13 02:26:52;;;;;;;21.83;3.33;;;5.80;99.90;;;;;;4954954;29;20428;-90
2023/01/13 02:32:24;;;;;;;10.75;2.08;;;5.90;99.90;;;;;;4955012;29;20082;-91
2023/01/13 02:35:10;;;;;;;10.52;2.15;;;5.90;99.90;;;;;;4937750;29;20039;-90
2023/01/13 02:37:40;;;;;;;17.00;1.80;;;6.00;99.90;;;;;;4937796;29;20035;-90
2023/01/13 02:40:31;;;;;;;14.98;1.95;;;6.00;99.90;;;;;;4938129;29;20035;-89
2023/01/13 02:45:53;;;;;;;12.30;2.75;;;6.00;99.90;;;;;;4956734;28;19913;-90
2023/01/13 02:48:22;;;;;;;13.25;1.63;;;6.00;99.90;;;;;;4941981;29;20027;-90
2023/01/13 02:51:08;;;;;;;7.03;1.35;;;6.00;99.90;;;;;;4942170;29;20034;-91
2023/01/13 02:53:47;;;;;;;10.80;1.73;;;6.00;99.90;;;;;;4942231;29;20031;-89
2023/01/13 02:56:15;;;;;;;17.80;3.15;;;6.00;99.90;;;;;;4942193;29;20492;-90
2023/01/13 02:58:44;;;;;;;14.02;1.67;;;5.90;99.90;;;;;;4942163;29;20053;-91
2023/01/13 03:01:10;;;;;;;12.68;2.20;;;5.90;99.90;;;;;;4942108;29;20114;-90
2023/01/13 03:03:35;;;;;;;13.70;2.42;;;5.90;99.90;;;;;;4941995;29;20058;-91
2023/01/13 03:06:35;;;;;;;11.23;1.42;;;5.90;99.90;;;;;;4941672;29;20031;-91
2023/01/13 03:09:14;;;;;;;12.95;2.75;;;5.80;99.90;;;;;;4910768;29;20039;-90
2023/01/13 03:12:35;;;;;;;11.57;2.10;;;5.80;99.90;;;;;;4941839;29;20029;-91
2023/01/13 03:15:23;;;;;;;6.55;1.73;;;5.80;99.90;;;;;;4865276;29;20074;-89
2023/01/13 03:18:05;;;;;;;11.65;1.63;;;5.80;99.90;;;;;;4865195;29;20144;-90
2023/01/13 03:20:36;;;;;;;13.77;3.05;;;5.80;99.90;;;;;;4881014;29;20108;-89
2023/01/13 03:23:14;;;;;;;12.13;2.05;;;5.80;99.90;;;;;;4865437;29;20159;-90
2023/01/13 03:25:52;;;;;;;7.45;1.40;;;5.90;99.90;;;;;;4880744;29;20101;-91
2023/01/13 03:28:28;;;;;;;12.63;3.33;;;5.80;99.90;;;;;;4880793;29;20115;-91
2023/01/13 03:31:02;;;;;;;20.38;2.20;;;5.90;99.90;;;;;;4881052;29;20056;-90
2023/01/13 03:33:36;;;;;;;10.43;2.22;;;5.90;99.90;;;;;;4865197;29;20033;-90
2023/01/13 03:36:07;;;;;;;14.88;2.40;;;5.80;99.90;;;;;;4880356;29;20510;-92
2023/01/13 03:38:38;;;;;;;10.20;2.33;;;5.80;99.90;;;;;;4865224;29;20037;-91
2023/01/13 03:41:09;;;;;;;;;;;5.80;99.90;;;;;;4881458;29;20099;-91
2023/01/13 03:46:48;;;;;;;13.82;3.30;;;5.80;99.90;;;;;;4880530;29;20089;-90
2023/01/13 03:49:24;;;;;;;16.95;3.95;;;5.80;99.90;;;;;;4864739;29;20029;-92
2023/01/13 03:52:04;;;;;;;12.65;3.00;;;5.80;99.90;;;;;;4922253;29;20359;-90
2023/01/13 03:54:35;;;;;;;16.15;2.30;;;5.80;99.90;;;;;;4921592;29;20039;-91
2023/01/13 03:57:06;;;;;;;;;;;5.80;99.90;;;;;;4938626;29;20042;-90
2023/01/13 03:59:37;;;;;;;6.78;2.10;;;5.80;99.90;;;;;;4921734;29;19907;-90
2023/01/13 04:02:09;;;;;;;19.00;2.78;;;5.90;99.90;;;;;;4921818;29;20063;-91
2023/01/13 04:04:44;;;;;;;13.85;2.45;;;5.90;99.90;;;;;;4921747;29;20034;-91
2023/01/13 04:07:51;;;;;;;11.63;2.40;;;5.90;99.90;;;;;;4938422;29;20023;-91
2023/01/13 04:10:39;;;;;;;6.13;1.33;;;5.90;99.90;;;;;;4915664;29;20033;-91
2023/01/13 04:13:13;;;;;;;14.85;2.70;;;6.00;99.90;;;;;;4917877;29;20035;-92
2023/01/13 04:15:42;;;;;;;8.73;1.77;;;6.00;99.90;;;;;;4902433;29;20032;-91
2023/01/13 04:18:23;;;;;;;11.93;2.35;;;6.00;99.90;;;;;;4902515;29;20474;-90
2023/01/13 04:20:50;;;;;;;12.63;2.38;;;6.00;99.90;;;;;;4918273;29;20046;-89
2023/01/13 04:23:17;;;;;;;6.70;1.45;;;6.00;99.90;;;;;;4902333;29;20029;-91
2023/01/13 04:25:44;;;;;;;14.85;1.92;;;6.10;99.90;;;;;;4902214;29;20032;-91
2023/01/13 04:28:11;;;;;;;11.75;1.40;;;6.10;99.90;;;;;;4902495;29;20122;-91
2023/01/13 04:30:37;;;;;;;16.73;1.90;;;6.10;99.90;;;;;;4902056;29;20110;-90
2023/01/13 04:33:04;;;;;;;15.25;1.85;;;6.10;99.90;;;;;;4902313;29;20060;-90
2023/01/13 04:35:30;;;;;;;7.65;1.50;;;6.10;99.90;;;;;;4906907;29;20048;-90
2023/01/13 04:37:56;;;;;;;8.75;1.70;;;6.10;99.90;;;;;;4921147;29;20126;-91
2023/01/13 04:40:22;;;;;;;6.57;2.10;;;6.10;99.90;;;;;;4920897;29;20520;-90
2023/01/13 04:42:47;;;;;;;9.23;1.92;;;6.20;99.90;;;;;;4921043;29;20074;-89
2023/01/13 04:45:13;;;;;;;10.75;1.52;;;6.20;99.90;;;;;;4920929;29;20056;-89
2023/01/13 04:47:40;;;;;;;5.93;0.80;;;6.20;99.90;;;;;;4920920;29;20539;-90
2023/01/13 04:50:07;;;;;;;7.32;1.20;;;6.30;99.90;;;;;;4921014;29;20039;-89
2023/01/13 04:52:33;;;;;;;10.68;1.75;;;6.30;99.90;;;;;;4936590;29;20032;-91
2023/01/13 04:54:58;;;;;;;2.63;0.77;;;6.30;99.90;;;;;;4920802;29;20450;-90
2023/01/13 04:57:24;;;;;;;9.82;1.45;;;6.30;99.90;;;;;;4920692;29;20028;-90
2023/01/13 04:59:50;;;;;;;12.38;1.20;;;6.30;99.90;;;;;;4920701;29;20035;-90
2023/01/13 05:02:18;;;;;;;13.45;1.30;;;6.30;99.90;;;;;;4920718;29;20032;-90
2023/01/13 05:04:45;;;;;;;9.55;2.55;;;6.30;99.90;;;;;;4920752;29;20067;-90
2023/01/13 05:07:12;;;;;;;12.65;1.30;;;6.30;99.90;;;;;;4920814;29;20036;-89
2023/01/13 05:09:38;;;;;;;6.60;1.27;;;6.40;99.90;;;;;;4937053;29;20054;-90
2023/01/13 05:17:32;;;;;;;8.43;1.15;;;6.40;99.90;;;;;;4938243;29;20035;-92
2023/01/13 05:19:58;;;;;;;7.85;1.08;;;6.30;99.90;;;;;;4920325;29;20477;-90
2023/01/13 05:25:21;;;;;;;9.88;1.23;;;6.40;99.90;;;;;;4937238;29;20075;-92
2023/01/13 05:27:52;;;;;;;12.43;1.60;;;6.40;99.90;;;;;;4920145;29;20028;-92
2023/01/13 05:30:20;;;;;;;9.40;1.73;;;6.30;99.90;;;;;;4920110;29;20038;-92
2023/01/13 05:32:46;;;;;;;9.55;1.35;;;6.30;99.90;;;;;;4920286;29;20051;-90
2023/01/13 05:35:11;;;;;;;19.70;1.10;;;6.30;99.90;;;;;;4919886;29;20087;-91
2023/01/13 05:37:38;;;;;;;11.45;1.95;;;6.30;99.90;;;;;;4919999;29;20031;-91
2023/01/13 05:46:04;;;;;;;17.48;2.13;;;6.30;99.90;;;;;;4937213;29;20402;-92
2023/01/13 05:48:36;;;;;;;8.80;1.63;;;6.20;99.90;;;;;;4919930;29;20020;-90
2023/01/13 05:51:04;;;;;;;16.98;1.85;;;6.20;99.90;;;;;;4919941;29;20023;-91
2023/01/13 05:53:31;;;;;;;3.65;0.68;;;6.20;99.90;;;;;;4919799;29;20114;-90
2023/01/13 05:55:57;;;;;;;8.88;1.98;;;6.20;99.90;;;;;;4919540;29;20043;-91
2023/01/13 05:58:25;;;;;;;5.63;1.65;;;6.20;99.90;;;;;;4935607;29;20409;-90
2023/01/13 06:00:51;;;;;;;4.55;0.80;;;6.30;99.90;;;;;;4919513;29;20397;-90
2023/01/13 06:03:20;;;;;;;15.48;2.00;;;6.30;99.90;;;;;;4919500;29;20020;-90
2023/01/13 06:05:46;;;;;;;12.38;2.08;;;6.40;99.90;;;;;;4919536;29;20063;-89
2023/01/13 06:08:12;;;;;;;6.03;1.17;;;6.40;99.90;;;;;;4919853;29;20028;-91
2023/01/13 06:10:38;;;;;;;9.30;1.02;;;6.40;99.90;;;;;;4917831;29;20032;-90
2023/01/13 06:13:04;;;;;;;10.65;1.55;;;6.40;99.90;;;;;;4920113;29;20040;-90
2023/01/13 06:15:30;;;;;;;10.80;1.67;;;6.40;99.90;;;;;;4935618;29;20524;-91
2023/01/13 06:17:56;;;;;;;9.50;1.73;;;6.30;99.90;;;;;;4919357;29;20028;-90
2023/01/13 06:20:23;;;;;;;6.47;1.65;;;6.30;99.90;;;;;;4936204;29;20038;-90
2023/01/13 06:22:51;;;;;;;9.35;2.30;;;6.30;99.90;;;;;;4919679;29;20082;-93
2023/01/13 06:25:49;;;;;;;8.93;1.10;;;6.30;99.90;;;;;;4919197;29;20024;-90
2023/01/13 06:28:14;;;;;;;5.57;1.00;;;6.30;99.90;;;;;;4935115;29;20024;-90
2023/01/13 06:30:48;;;;;;;5.50;1.00;;;6.20;99.90;;;;;;4936197;29;20064;-90
2023/01/13 06:33:20;;;;;;;8.85;1.58;;;6.20;99.90;;;;;;4919303;29;20039;-89
2023/01/13 06:35:51;;;;;;;12.98;0.95;;;6.20;99.90;;;;;;4918970;29;20078;-92
2023/01/13 06:38:19;;;;;;;10.55;1.23;;;6.20;99.90;;;;;;4935172;29;20048;-90
2023/01/13 06:40:46;;;;;;;4.50;1.20;;;6.20;99.90;;;;;;4919194;29;20036;-90
2023/01/13 06:43:15;;;;;;;8.40;1.65;;;6.20;99.90;;;;;;4919381;29;20508;-89
2023/01/13 06:46:01;;;;;;;8.60;0.85;;;6.10;99.90;;;;;;4919231;29;20036;-90
2023/01/13 06:48:33;;;;;;;8.40;1.10;;;6.20;99.90;;;;;;4934967;29;20032;-89
2023/01/13 06:51:00;;;;;;;9.07;1.30;;;6.20;99.90;;;;;;4918952;29;20032;-90
2023/01/13 06:53:25;;;;;;;9.40;1.30;;;6.20;99.90;;;;;;4919097;29;20075;-91
2023/01/13 06:55:51;;;;;;;8.93;1.23;;;6.20;99.90;;;;;;4923549;29;20122;-91
2023/01/13 06:58:17;;;;;;;5.18;1.40;;;6.20;99.90;;;;;;4936379;29;20159;-90
2023/01/13 07:00:50;;;;;;;6.75;1.33;;;6.20;99.90;;;;;;4936925;29;20171;-91
2023/01/13 07:03:17;;;;;;;11.13;2.22;;;6.20;99.90;;;;;;4951117;29;20050;-90
2023/01/13 07:05:51;;;;;;;9.93;1.90;;;6.20;99.90;;;;;;4937628;29;20477;-91
2023/01/13 07:08:16;;;;;;;6.72;1.45;;;6.20;99.90;;;;;;4935613;29;20114;-91
2023/01/13 07:10:42;;;;;;;9.10;1.20;;;6.20;99.90;;;;;;4937557;29;20154;-91
2023/01/13 07:16:00;;;;;;;6.90;0.98;;;6.20;99.90;;;;;;4952271;29;20042;-92
2023/01/13 07:18:30;;;;;;;11.20;1.90;;;6.20;99.90;;;;;;4951404;29;20476;-92
2023/01/13 07:20:57;;;;;;;13.27;1.50;;;6.20;99.90;;;;;;4937428;29;20126;-92
2023/01/13 07:23:25;;;;;;;8.05;1.55;;;6.20;99.90;;;;;;4952565;29;20285;-91
2023/01/13 07:25:54;;;;;;;8.38;1.45;;;6.20;99.90;;;;;;4937792;29;20023;-89
2023/01/13 07:28:20;;;;;;;9.70;1.23;;;6.20;99.90;;;;;;4938119;29;20015;-93
2023/01/13 07:30:45;;;;;;;6.13;1.05;;;6.20;99.90;;;;;;4937571;28;20524;-91
2023/01/13 07:33:11;;;;;;;12.65;2.05;;;6.20;99.90;;;;;;4957702;29;20020;-91
2023/01/13 07:35:37;;;;;;;7.97;1.30;;;6.10;99.90;;;;;;4940952;29;20047;-90
2023/01/13 07:38:02;;;;;;;13.40;1.20;;;6.10;99.90;;;;;;4954211;29;20576;-91
2023/01/13 07:40:28;;;;;;;12.10;1.58;;;6.10;99.90;;;;;;4940808;29;20106;-90
2023/01/13 07:45:39;;;;;;;10.88;1.33;;;6.20;99.90;;;;;;4958149;29;20041;-90
2023/01/13 07:48:05;;;;;;;9.13;2.17;;;6.20;99.90;;;;;;4941204;29;20027;-92
2023/01/13 07:50:31;;;;;;;7.72;1.25;;;6.20;99.90;;;;;;4941099;29;20111;-91
2023/01/13 07:52:57;;;;;;;5.72;1.42;;;6.20;99.90;;;;;;4941161;29;20031;-89
2023/01/13 07:55:23;;;;;;;10.95;2.65;;;6.20;99.90;;;;;;4941088;29;20043;-92
2023/01/13 07:57:49;;;;;;;13.55;1.55;;;6.30;99.90;;;;;;4940896;29;20039;-91
2023/01/13 08:00:15;;;;;;;10.15;1.63;;;6.20;99.90;;;;;;4941204;29;20031;-91
2023/01/13 08:02:41;;;;;;;10.40;1.48;;;6.30;99.90;;;;;;4940524;29;20020;-89
2023/01/13 08:05:07;;;;;;;6.78;1.05;;;6.30;99.90;;;;;;4940769;29;20058;-90
2023/01/13 08:07:33;;;;;;;6.95;1.38;;;6.30;99.90;;;;;;4940578;29;20147;-90
2023/01/13 08:09:59;;;;;;;9.95;1.73;;;6.30;99.90;;;;;;4940605;29;20034;-89
2023/01/13 08:15:09;;;;;;;5.10;0.95;;;6.30;99.90;;;;;;4958799;29;20401;-90
2023/01/13 08:17:35;;;;;;;9.75;1.30;;;6.40;99.90;;;;;;4944542;29;20433;-90
2023/01/13 08:20:05;;;;;;;10.02;1.77;;;6.40;99.90;;;;;;4943476;29;20491;-90
2023/01/13 08:22:32;;;;;;;7.63;0.88;;;6.40;99.90;;;;;;4940132;29;20035;-89
2023/01/13 08:24:58;;;;;;;7.22;1.30;;;6.40;99.90;;;;;;4939996;29;20418;-90
2023/01/13 08:27:24;;;;;;;10.60;1.25;;;6.40;99.90;;;;;;4940817;29;20035;-89
2023/01/13 08:29:49;;;;;;;5.10;1.20;;;6.40;99.90;;;;;;4941016;29;20473;-89
2023/01/13 08:32:15;;;;;;;8.98;1.30;;;6.40;99.90;;;;;;4940718;29;20034;-89
2023/01/13 08:34:41;;;;;;;9.30;1.63;;;6.40;99.90;;;;;;4940388;29;20067;-91
2023/01/13 08:37:06;;;;;;;7.00;0.90;;;6.40;99.90;;;;;;4940240;29;20436;-91
2023/01/13 08:39:32;;;;;;;7.75;0.68;;;6.50;99.90;;;;;;4939642;29;20035;-89
2023/01/13 08:41:58;;;;;;;7.03;1.25;;;6.40;99.90;;;;;;4940263;29;20432;-89
2023/01/13 08:44:25;;;;;;;6.78;1.00;;;6.50;99.90;;;;;;4939190;29;20215;-91
2023/01/13 08:46:51;;;;;;;3.78;0.95;;;6.50;99.90;;;;;;4939837;29;20034;-91
2023/01/13 08:49:17;;;;;;;6.80;0.80;;;6.50;99.90;;;;;;4939706;29;20019;-91
2023/01/13 08:51:43;;;;;;;11.20;0.90;;;6.40;99.90;;;;;;4939563;29;20023;-90
2023/01/13 08:54:09;;;;;;;11.23;1.23;;;6.50;99.90;;;;;;4939177;29;20191;-90
2023/01/13 08:56:34;;;;;;;3.28;0.90;;;6.40;99.90;;;;;;4939215;29;20038;-90
2023/01/13 08:59:00;;;;;;;18.70;2.13;;;6.40;99.90;;;;;;4938534;29;20114;-90
2023/01/13 09:01:26;;;;;;;8.73;1.10;;;6.50;99.90;;;;;;4938957;29;20030;-89
2023/01/13 09:03:52;;;;;;;10.27;2.33;;;6.50;99.90;;;;;;4939128;29;20024;-90
2023/01/13 09:06:18;;;;;;;7.53;1.08;;;6.50;99.90;;;;;;4939299;29;20489;-91
2023/01/13 09:08:44;;;;;;;13.18;2.38;;;6.50;99.90;;;;;;4939288;29;20114;-91
2023/01/13 09:14:03;;;;;;;15.35;1.65;;;6.40;99.90;;;;;;4954097;29;20026;-91
2023/01/13 09:16:28;;;;;;;17.17;2.25;;;6.40;99.90;;;;;;4938971;29;20027;-93
2023/01/13 09:18:54;;;;;;;5.50;1.25;;;6.50;99.90;;;;;;4939135;29;20110;-91
2023/01/13 09:21:21;;;;;;;7.38;1.27;;;6.50;99.90;;;;;;4952939;29;20362;-91
2023/01/13 09:23:47;;;;;;;6.65;1.02;;;6.50;99.90;;;;;;4938792;29;20084;-89
2023/01/13 09:26:19;;;;;;;10.73;2.00;;;6.50;99.90;;;;;;4938798;29;20118;-89
2023/01/13 09:28:45;;;;;;;9.85;1.85;;;6.50;99.90;;;;;;4933206;29;20545;-91
2023/01/13 09:31:11;;;;;;;5.68;1.25;;;6.50;99.90;;;;;;4953249;29;20034;-91
2023/01/13 09:36:21;;;;;;;11.77;2.00;;;6.60;99.90;;;;;;4953733;29;20519;-89
2023/01/13 09:38:48;;;;;;;11.70;1.55;;;6.60;99.90;;;;;;4937424;29;20110;-89
2023/01/13 09:44:31;;;;;;;11.95;2.25;;;6.60;99.90;;;;;;4952640;29;20070;-91
2023/01/13 09:47:02;;;;;;;15.18;1.55;;;6.60;99.90;;;;;;4952415;29;20471;-90
2023/01/13 09:49:38;;;;;;;7.53;1.00;;;6.50;99.90;;;;;;4951625;29;20023;-90
2023/01/13 09:52:18;;;;;;;9.27;1.38;;;6.50;99.90;;;;;;4954157;29;20074;-90
2023/01/13 09:54:52;;;;;;;4.88;1.10;;;6.50;99.90;;;;;;4936166;29;20057;-90
2023/01/13 09:57:19;;;;;;;7.75;0.95;;;6.50;99.90;;;;;;4937084;29;20066;-92
2023/01/13 09:59:46;;;;;;;6.85;1.38;;;6.50;99.90;;;;;;4937212;29;20098;-90
2023/01/13 10:02:23;;;;;;;10.77;1.33;;;6.50;99.90;;;;;;4937449;29;20421;-90
2023/01/13 10:05:27;;;;;;;8.20;1.92;;;6.50;99.90;;;;;;4937155;29;20489;-89
2023/01/13 10:08:23;;;;;;;11.95;1.67;;;6.50;99.90;;;;;;4932337;29;20118;-90
2023/01/13 10:13:12;;;;;;;12.35;1.40;;;6.50;99.90;;;;;;4937844;29;20110;-90
2023/01/13 10:13:47;;;;;;;8.93;1.02;;;6.50;99.90;;;;;;4953594;29;20030;-91
2023/01/13 10:16:26;;;;;;;6.72;1.58;;;6.50;99.90;;;;;;4937738;29;20062;-90
2023/01/13 10:19:05;;;;;;;8.00;1.00;;;6.50;99.90;;;;;;4937556;29;20031;-89
2023/01/13 10:22:21;;;;;;;12.15;1.33;;;6.50;99.90;;;;;;4937329;29;20505;-91
2023/01/13 10:25:01;;;;;;;4.80;1.23;;;6.50;99.90;;;;;;4872176;29;20040;-88
2023/01/13 10:27:27;;;;;;;7.43;1.17;;;6.50;99.90;;;;;;4853633;29;20495;-91
2023/01/13 10:29:53;;;;;;;16.63;1.80;;;6.60;99.90;;;;;;4876261;29;20028;-90
2023/01/13 10:32:18;;;;;;;10.98;2.08;;;6.60;99.90;;;;;;4861187;29;20060;-89
2023/01/13 10:34:49;;;;;;;14.13;1.85;;;6.60;99.90;;;;;;4853477;29;20045;-90
2023/01/13 10:37:21;;;;;;;13.80;1.77;;;6.60;99.90;;;;;;4861209;29;20119;-90
2023/01/13 10:39:48;;;;;;;16.05;1.42;;;6.60;99.90;;;;;;4872843;29;20045;-90
2023/01/13 10:42:16;;;;;;;10.20;1.58;;;6.60;99.90;;;;;;4861919;29;20036;-90
2023/01/13 10:44:55;;;;;;;12.77;2.22;;;6.60;99.90;;;;;;4861482;29;20029;-90
2023/01/13 10:47:27;;;;;;;5.32;0.93;;;6.60;99.90;;;;;;4861772;29;20277;-90
2023/01/13 10:50:08;;;;;;;8.77;1.50;;;6.60;99.90;;;;;;4862050;29;20033;-90
2023/01/13 10:52:37;;;;;;;13.80;1.58;;;6.50;99.90;;;;;;4877500;29;20047;-90
2023/01/13 10:55:21;;;;;;;5.18;1.10;;;6.50;99.90;;;;;;4861506;29;20647;-89
2023/01/13 10:57:47;;;;;;;7.50;1.02;;;6.50;99.90;;;;;;4889318;29;20050;-90
2023/01/13 11:00:39;;;;;;;3.65;0.93;;;6.50;99.90;;;;;;4919440;29;20028;-89
2023/01/13 11:03:14;;;;;;;11.88;1.70;;;6.40;99.90;;;;;;4935572;29;20411;-89
2023/01/13 11:05:47;;;;;;;3.63;1.42;;;6.50;99.90;;;;;;4937934;28;20110;-90
2023/01/13 11:08:17;;;;;;;7.18;1.10;;;6.50;99.90;;;;;;4940330;29;20381;-90
2023/01/13 11:10:49;;;;;;;7.70;1.10;;;6.50;99.90;;;;;;4941652;29;20493;-89
2023/01/13 11:13:32;;;;;;;9.57;1.40;;;6.50;99.90;;;;;;4941342;29;20027;-89
2023/01/13 11:16:14;;;;;;;9.35;1.35;;;6.50;99.90;;;;;;4937946;29;20512;-89
2023/01/13 11:19:01;;;;;;;3.35;1.00;;;6.50;99.90;;;;;;4938771;29;20081;-90
2023/01/13 11:21:51;;;;;;;9.68;1.23;;;6.50;99.90;;;;;;4940142;29;20046;-90
2023/01/13 11:24:36;;;;;;;6.65;1.00;;;6.50;99.90;;;;;;4940271;28;20071;-89
2023/01/13 11:27:37;;;;;;;10.60;1.50;;;6.50;99.90;;;;;;4939798;29;20118;-89
2023/01/13 11:30:28;;;;;;;7.15;1.38;;;6.50;99.90;;;;;;4927271;29;20162;-89
2023/01/13 11:33:09;;;;;;;4.10;0.93;;;6.50;99.90;;;;;;4940198;29;20041;-90
2023/01/13 11:35:44;;;;;;;12.10;1.40;;;6.50;99.90;;;;;;4955861;29;20051;-90
2023/01/13 11:38:23;;;;;;;7.20;1.00;;;6.50;99.90;;;;;;4937794;29;20035;-89
2023/01/13 11:40:50;;;;;;;11.55;1.92;;;6.50;99.90;;;;;;4954589;29;20039;-89
2023/01/13 11:43:36;;;;;;;5.22;1.05;;;6.50;99.90;;;;;;4939653;29;20079;-91
2023/01/13 11:46:04;;;;;;;4.43;0.80;;;6.50;99.90;;;;;;4953656;29;20028;-89
2023/01/13 11:48:34;;;;;;;9.85;1.20;;;6.60;99.90;;;;;;4939638;29;20027;-89
2023/01/13 11:51:12;;;;;;;4.88;0.82;;;6.60;99.90;;;;;;4953029;29;20377;-89
2023/01/13 11:54:17;;;;;;;9.80;1.00;;;6.60;99.90;;;;;;4939775;29;20400;-90
2023/01/13 11:56:51;;;;;;;7.07;1.10;;;6.60;99.90;;;;;;4939395;29;20122;-89
2023/01/13 11:59:49;;;;;;;7.55;0.75;;;6.60;99.90;;;;;;4952537;29;20024;-89
2023/01/13 12:02:52;;;;;;;3.80;1.05;;;6.60;99.90;;;;;;4955040;29;20536;-90
2023/01/13 12:05:22;;;;;;;9.35;1.60;;;6.60;99.90;;;;;;4936663;29;20031;-89
2023/01/13 12:08:24;;;;;;;6.53;1.38;;;6.60;99.90;;;;;;4938755;29;20452;-89
2023/01/13 12:11:05;;;;;;;9.38;1.33;;;6.70;99.90;;;;;;4938063;29;20047;-89
2023/01/13 12:13:39;;;;;;;7.35;1.30;;;6.70;99.90;;;;;;4939155;29;20023;-89
2023/01/13 12:16:10;;;;;;;7.70;1.35;;;6.70;99.90;;;;;;4937738;29;20037;-90
2023/01/13 12:18:48;;;;;;;10.35;1.70;;;6.70;99.90;;;;;;4938485;29;20035;-89
2023/01/13 12:21:20;;;;;;;6.82;1.58;;;6.70;99.90;;;;;;4939013;29;20035;-89
2023/01/13 12:23:58;;;;;;;10.60;1.58;;;6.70;99.90;;;;;;4939123;29;20386;-90
2023/01/13 12:26:25;;;;;;;9.52;2.47;;;6.70;99.90;;;;;;4934593;29;20401;-90
2023/01/13 12:29:17;;;;;;;5.88;1.02;;;6.70;99.90;;;;;;4938529;29;20023;-90
2023/01/13 12:31:48;;;;;;;7.55;1.70;;;6.70;99.90;;;;;;4935993;29;20054;-89
2023/01/13 12:34:23;;;;;;;5.45;1.02;;;6.60;99.90;;;;;;4939028;29;20086;-89
2023/01/13 12:37:31;;;;;;;6.47;1.40;;;6.70;99.90;;;;;;4938605;29;20512;-89
2023/01/13 12:40:03;;;;;;;3.58;0.80;;;6.70;99.90;;;;;;4934649;29;20381;-89
2023/01/13 12:45:25;;;;;;;3.83;1.05;;;6.70;99.90;;;;;;4954996;29;20042;-88
2023/01/13 12:47:52;;;;;;;7.20;1.13;;;6.60;99.90;;;;;;4938337;29;20023;-89
2023/01/13 12:50:20;;;;;;;8.98;1.50;;;6.60;99.90;;;;;;4938316;29;20023;-90
2023/01/13 12:52:50;;;;;;;8.07;1.17;;;6.60;99.90;;;;;;4938278;29;20031;-89
2023/01/13 12:55:27;;;;;;;4.67;1.07;;;6.60;99.90;;;;;;4938130;29;20031;-90
2023/01/13 12:58:14;;;;;;;1.73;0.40;;;6.60;99.90;;;;;;4935904;29;20066;-91
2023/01/13 13:00:40;;;;;;;11.30;1.42;;;6.60;99.90;;;;;;4939525;29;20082;-90
2023/01/13 13:03:14;;;;;;;6.53;1.23;;;6.60;99.90;;;;;;4939452;29;20039;-89
2023/01/13 13:05:43;;;;;;;12.15;1.38;;;6.60;99.90;;;;;;4940886;29;20477;-89
2023/01/13 13:08:21;;;;;;;11.13;2.00;;;6.50;99.90;;;;;;4939295;29;20147;-90
2023/01/13 13:11:01;;;;;;;13.38;2.17;;;6.50;99.90;;;;;;4956182;29;20035;-91
2023/01/13 13:13:47;;;;;;;;;;;6.50;99.90;;;;;;4938070;29;20031;-90
2023/01/13 13:16:25;;;;;;;15.57;3.15;;;6.50;99.90;;;;;;4938768;29;19922;-92
2023/01/13 13:18:52;;;;;;;9.25;1.65;;;6.50;99.90;;;;;;4938650;29;20035;-91
2023/01/13 13:21:18;;;;;;;8.63;2.08;;;6.50;99.90;;;;;;4938846;29;20035;-91
2023/01/13 13:23:55;;;;;;;13.52;2.00;;;6.50;99.90;;;;;;4938047;29;20034;-92
2023/01/13 13:26:30;;;;;;;9.30;1.55;;;6.50;99.90;;;;;;4937601;29;20027;-91
2023/01/13 13:29:12;;;;;;;10.73;1.52;;;6.50;99.90;;;;;;4954807;28;20015;-90
2023/01/13 13:31:54;;;;;;;9.02;1.27;;;6.50;99.90;;;;;;4937420;29;20027;-90
2023/01/13 13:34:26;;;;;;;10.52;3.53;;;6.60;99.90;;;;;;4937277;29;20571;-91
2023/01/13 13:46:45;;;;;;;9.18;1.55;;;6.60;99.90;;;;;;4936972;29;20043;-91
2023/01/13 13:48:54;;;;;;;6.53;1.00;;;6.60;99.90;;;;;;4953686;29;20058;-91
2023/01/13 13:51:41;;;;;;;9.93;2.17;;;6.60;99.90;;;;;;4936652;29;20035;-89
2023/01/13 13:54:17;;;;;;;9.15;1.85;;;6.60;99.90;;;;;;4937119;29;20492;-89
2023/01/13 13:56:45;;;;;;;14.32;2.30;;;6.60;99.90;;;;;;4938354;29;20042;-88
2023/01/13 13:59:14;;;;;;;24.98;2.72;;;6.60;99.90;;;;;;4939685;29;20055;-89
2023/01/13 14:01:43;;;;;;;10.82;1.50;;;6.70;99.90;;;;;;4928898;29;20062;-90
2023/01/13 14:04:17;;;;;;;17.67;2.00;;;6.70;99.90;;;;;;4940112;29;20029;-90
2023/01/13 14:07:01;;;;;;;6.63;1.90;;;6.70;99.90;;;;;;4937252;29;20609;-91
2023/01/13 14:09:28;;;;;;;19.67;2.78;;;6.70;99.90;;;;;;4941460;29;20131;-90
2023/01/13 14:12:02;;;;;;;17.55;2.90;;;6.70;99.90;;;;;;4937531;29;20027;-89
2023/01/13 14:14:28;;;;;;;14.57;2.88;;;6.70;99.90;;;;;;4936928;29;20046;-89
2023/01/13 14:16:55;;;;;;;20.80;2.10;;;6.70;99.90;;;;;;4937724;29;20564;-89